aviador You're here:

KAVP Decoded Metar

AVOCA/WILKES B. in PA, USA
Report Time2018-02-22 11:54:00
UTC Time2018-02-22 12:33:50
Flight Rules vfr VFR
Wind020° at 06 kt
W.Decomp.*RWY 04: 5.9 kt HW 0.9 kt LCW
RWY 10: 2.2 kt HW 5.6 kt LCW
W.Rank020° ranks 24
Current wind is below 020° avg. (6.4)
Visibility9999 m
Phenomena:Light Rain
Clouds:Overcast 060 Hf
Expected CloudBase > 800 ft AGL from Temp-Dew spread
Ceiling6,000 ft
Temp03°C (ISA -10)
Dew Point01°C (87% RH)
AAT-1.0°C
QNH1035 hPa
Density Alt-919 ft
Elevation955 ft
Report Wrong Elevation
Raw Report
KAVP 221154Z 02006KT 10SM -RA OVC060 03/01 A3055 RMK AO2 SLP348
P0002 60002 70003 T00280011 10050 20028 53004=

Extra information for KAVP:More info

Metar Taf Metar & Taf Last 4 Metars F.Rules Stats Wind Profile Meteogram Temp Stats Airport Information Weather charts Add Link Nearby VenuesMetar ALERT Operation Metar Decoded Social comments

AIRNAV info for KAVP